createdAt,value
2023-03-07T00:00:15.479Z,6.47
2023-03-07T00:05:19.019Z,7.60
2023-03-07T00:10:23.627Z,7.30
2023-03-07T00:15:27.429Z,6.40
2023-03-07T00:20:30.879Z,7.67
2023-03-07T00:25:35.820Z,6.90
2023-03-07T00:30:39.192Z,7.17
2023-03-07T00:35:42.603Z,7.37
2023-03-07T00:40:47.306Z,6.93
2023-03-07T00:45:50.713Z,6.63
2023-03-07T00:50:54.311Z,6.57
2023-03-07T00:56:00.160Z,7.00
2023-03-07T01:01:05.588Z,7.23
2023-03-07T01:06:10.545Z,6.53
2023-03-07T01:11:16.211Z,7.13
2023-03-07T01:16:20.468Z,7.60
2023-03-07T01:21:24.569Z,7.20
2023-03-07T01:26:30.412Z,7.17
2023-03-07T01:31:34.680Z,7.30
2023-03-07T01:36:38.173Z,8.13
2023-03-07T01:41:44.185Z,7.80
2023-03-07T01:46:49.742Z,7.33
2023-03-07T01:51:56.051Z,6.40
2023-03-07T01:57:02.548Z,6.90
2023-03-07T02:02:07.621Z,6.13
2023-03-07T02:07:11.841Z,5.70
2023-03-07T02:12:16.758Z,7.00
2023-03-07T02:17:21.123Z,6.67
2023-03-07T02:22:26.400Z,6.43
2023-03-07T02:27:32.769Z,6.27
2023-03-07T02:32:36.218Z,6.53
2023-03-07T02:37:40.161Z,6.50
2023-03-07T02:42:45.282Z,6.10
2023-03-07T02:47:50.180Z,6.10
2023-03-07T02:52:54.739Z,6.27
2023-03-07T02:57:59.410Z,6.90
2023-03-07T03:03:03.462Z,7.37
2023-03-07T03:08:07.255Z,6.30
2023-03-07T03:13:11.933Z,6.97
2023-03-07T03:18:18.181Z,6.87
2023-03-07T03:23:21.559Z,6.40
2023-03-07T03:28:26.257Z,6.93
2023-03-07T03:33:30.447Z,6.37
2023-03-07T03:38:34.034Z,5.87
2023-03-07T03:43:39.078Z,7.77
2023-03-07T03:48:42.757Z,5.47
2023-03-07T03:53:46.300Z,7.20
2023-03-07T03:58:51.710Z,7.53
2023-03-07T04:03:55.627Z,7.40
2023-03-07T04:09:00.135Z,7.13
2023-03-07T04:14:04.898Z,7.10
2023-03-07T04:19:10.919Z,6.90
2023-03-07T04:24:14.385Z,4.93
2023-03-07T04:29:19.161Z,7.17
2023-03-07T04:34:34.953Z,6.80
2023-03-07T04:39:38.282Z,7.53
2023-03-07T04:44:45.186Z,7.07
2023-03-07T04:49:48.449Z,8.30
2023-03-07T04:54:51.959Z,6.73
2023-03-07T04:59:56.786Z,6.87
2023-03-07T05:05:00.582Z,7.57
2023-03-07T05:10:03.876Z,7.23
2023-03-07T05:15:09.807Z,6.80
2023-03-07T05:20:13.300Z,7.33
2023-03-07T05:25:18.230Z,7.57
2023-03-07T05:30:23.187Z,6.37
2023-03-07T05:35:26.674Z,7.83
2023-03-07T05:40:32.559Z,7.10
2023-03-07T05:45:38.170Z,7.27
2023-03-07T05:50:42.845Z,7.13
2023-03-07T05:55:46.773Z,7.70
2023-03-07T06:00:54.046Z,7.13
2023-03-07T06:05:58.025Z,7.80
2023-03-07T06:11:01.570Z,7.80
2023-03-07T06:16:06.521Z,8.37
2023-03-07T06:21:11.971Z,7.63
2023-03-07T06:26:20.186Z,7.67
2023-03-07T06:31:28.900Z,7.40
2023-03-07T06:36:32.651Z,7.27
2023-03-07T06:41:37.915Z,7.97
2023-03-07T06:46:43.186Z,6.77
2023-03-07T06:51:50.060Z,7.60
2023-03-07T06:56:55.169Z,9.30
2023-03-07T07:02:02.511Z,7.23
2023-03-07T07:07:07.313Z,8.17
2023-03-07T07:12:11.320Z,6.77
2023-03-07T07:17:16.813Z,7.10
2023-03-07T07:22:20.089Z,6.80
2023-03-07T07:27:25.979Z,7.33
2023-03-07T07:32:31.181Z,7.67
2023-03-07T07:37:35.145Z,8.70
2023-03-07T07:42:38.760Z,7.33
2023-03-07T07:47:55.057Z,7.03
2023-03-07T07:52:59.618Z,6.93
2023-03-07T07:58:03.352Z,7.50
2023-03-07T08:03:08.167Z,7.10
2023-03-07T08:08:11.449Z,7.23
2023-03-07T08:13:15.371Z,8.10
2023-03-07T08:18:19.949Z,7.60
2023-03-07T08:23:24.537Z,7.20
2023-03-07T08:28:27.940Z,6.77
2023-03-07T08:33:32.882Z,6.40
2023-03-07T08:38:36.501Z,5.23
2023-03-07T08:43:40.202Z,7.20
2023-03-07T08:48:45.127Z,5.90
2023-03-07T08:53:48.594Z,7.27
2023-03-07T08:58:53.656Z,7.10
2023-03-07T09:03:58.307Z,5.97
2023-03-07T09:09:01.550Z,5.70
2023-03-07T09:14:06.194Z,7.80
2023-03-07T09:19:11.033Z,6.30
2023-03-07T09:24:14.423Z,6.03
2023-03-07T09:29:17.999Z,5.60
2023-03-07T09:34:22.554Z,5.60
2023-03-07T09:39:25.822Z,5.47
2023-03-07T09:44:35.955Z,5.80
2023-03-07T09:50:01.899Z,4.87
2023-03-07T09:55:06.993Z,5.30
2023-03-07T10:00:18.481Z,5.70
2023-03-07T10:05:28.862Z,5.63
2023-03-07T10:10:39.152Z,7.33
2023-03-07T10:15:46.443Z,6.00
2023-03-07T10:20:53.013Z,5.87
2023-03-07T10:25:59.928Z,5.67
2023-03-07T10:31:12.431Z,5.63
2023-03-07T10:36:20.443Z,5.10
2023-03-07T10:41:23.819Z,5.07
2023-03-07T10:46:28.205Z,5.70
2023-03-07T10:51:37.301Z,4.77
2023-03-07T10:56:40.591Z,5.10
2023-03-07T11:01:55.993Z,4.77
2023-03-07T11:07:01.675Z,4.83
2023-03-07T11:12:12.504Z,4.30
2023-03-07T11:17:19.801Z,5.43
2023-03-07T11:22:26.242Z,4.67
2023-03-07T11:27:34.886Z,5.20
2023-03-07T11:32:40.525Z,5.23
2023-03-07T11:37:48.415Z,5.23
2023-03-07T11:42:55.415Z,4.63
2023-03-07T11:48:03.017Z,4.53
2023-03-07T11:53:29.602Z,4.07
2023-03-07T11:58:40.734Z,6.10
2023-03-07T12:03:54.056Z,4.83
2023-03-07T12:09:04.713Z,3.90
2023-03-07T12:14:13.124Z,4.87
2023-03-07T12:19:32.838Z,5.07
2023-03-07T12:24:39.615Z,4.33
2023-03-07T12:29:44.423Z,5.10
2023-03-07T12:34:51.046Z,4.77
2023-03-07T12:39:57.040Z,3.70
2023-03-07T12:45:02.314Z,4.87
2023-03-07T12:50:10.829Z,4.67
2023-03-07T12:55:21.834Z,4.80
2023-03-07T13:00:25.998Z,5.17
2023-03-07T13:05:29.861Z,4.03
2023-03-07T13:10:34.974Z,5.33
2023-03-07T13:16:02.623Z,6.53
2023-03-07T13:21:10.413Z,5.53
2023-03-07T13:26:15.406Z,5.53
2023-03-07T13:31:36.694Z,5.83
2023-03-07T13:36:40.358Z,5.07
2023-03-07T13:41:49.459Z,5.30
2023-03-07T13:46:55.820Z,5.17
2023-03-07T13:52:18.944Z,5.17
2023-03-07T13:57:27.575Z,6.03
2023-03-07T14:02:31.980Z,5.53
2023-03-07T14:07:36.605Z,6.33
2023-03-07T14:12:45.914Z,5.83
2023-03-07T14:17:55.751Z,5.07
2023-03-07T14:23:07.202Z,4.70
2023-03-07T14:28:21.494Z,4.37
2023-03-07T14:33:31.017Z,4.70
2023-03-07T14:38:34.392Z,3.87
2023-03-07T14:43:45.231Z,3.90
2023-03-07T14:48:56.986Z,3.90
2023-03-07T14:54:06.290Z,3.60
2023-03-07T14:59:27.826Z,4.27
2023-03-07T15:04:33.060Z,4.63
2023-03-07T15:09:36.339Z,3.20
2023-03-07T15:14:44.502Z,4.97
2023-03-07T15:19:50.949Z,3.83
2023-03-07T15:24:54.681Z,4.00
2023-03-07T15:30:00.558Z,3.70
2023-03-07T15:35:05.221Z,3.80
2023-03-07T15:40:24.292Z,5.13
2023-03-07T15:45:30.426Z,3.87
2023-03-07T15:50:33.920Z,3.97
2023-03-07T15:55:39.881Z,3.50
2023-03-07T16:00:44.585Z,3.80
2023-03-07T16:05:47.924Z,3.73
2023-03-07T16:10:53.462Z,4.33
2023-03-07T16:16:05.695Z,3.57
2023-03-07T16:21:10.336Z,3.67
2023-03-07T16:26:15.168Z,3.97
2023-03-07T16:31:20.648Z,4.43
2023-03-07T16:36:23.952Z,6.00
2023-03-07T16:41:27.270Z,7.43
2023-03-07T16:46:32.064Z,4.60
2023-03-07T16:51:35.348Z,4.83
2023-03-07T16:56:40.728Z,4.60
2023-03-07T17:01:46.090Z,3.60
2023-03-07T17:06:57.935Z,4.00
2023-03-07T17:12:07.963Z,3.63
2023-03-07T17:17:18.098Z,3.87
2023-03-07T17:22:21.587Z,4.20
2023-03-07T17:27:25.073Z,3.60
2023-03-07T17:32:29.795Z,3.80
2023-03-07T17:37:33.047Z,3.80
2023-03-07T17:42:36.450Z,3.73
2023-03-07T17:47:41.630Z,3.97
2023-03-07T17:52:45.036Z,4.13
2023-03-07T17:57:48.363Z,4.67
2023-03-07T18:02:53.563Z,3.50
2023-03-07T18:07:57.845Z,4.20
2023-03-07T18:13:01.180Z,7.47
2023-03-07T18:18:07.002Z,4.90
2023-03-07T18:23:10.374Z,11.67
2023-03-07T18:28:13.820Z,4.13
2023-03-07T18:33:18.931Z,6.87
2023-03-07T18:38:22.306Z,5.40
2023-03-07T18:43:25.994Z,7.73
2023-03-07T18:48:30.795Z,6.47
2023-03-07T18:53:34.857Z,3.87
2023-03-07T18:58:38.694Z,5.17
2023-03-07T19:03:43.734Z,4.07
2023-03-07T19:08:47.693Z,3.80
2023-03-07T19:13:51.177Z,4.70
2023-03-07T19:18:56.674Z,4.53
2023-03-07T19:24:03.943Z,3.47
2023-03-07T19:29:07.238Z,4.20
2023-03-07T19:34:12.293Z,3.83
2023-03-07T19:39:20.547Z,4.30
2023-03-07T19:44:24.271Z,3.80
2023-03-07T19:49:29.226Z,4.03
2023-03-07T19:54:33.023Z,5.23
2023-03-07T19:59:36.329Z,4.20
2023-03-07T20:04:41.254Z,3.53
2023-03-07T20:09:44.940Z,4.10
2023-03-07T20:14:48.179Z,4.47
2023-03-07T20:19:55.108Z,4.00
2023-03-07T20:24:58.817Z,4.47
2023-03-07T20:30:03.149Z,4.50
2023-03-07T20:35:08.550Z,4.60
2023-03-07T20:40:12.603Z,4.50
2023-03-07T20:45:16.328Z,4.13
2023-03-07T20:50:21.290Z,5.20
2023-03-07T20:55:29.107Z,5.07
2023-03-07T21:00:32.634Z,3.80
2023-03-07T21:05:37.642Z,5.40
2023-03-07T21:10:40.950Z,5.30
2023-03-07T21:15:56.501Z,6.37
2023-03-07T21:21:02.424Z,4.93
2023-03-07T21:26:07.047Z,6.60
2023-03-07T21:31:16.136Z,4.50
2023-03-07T21:36:21.131Z,5.73
2023-03-07T21:41:25.784Z,6.67
2023-03-07T21:46:29.428Z,4.97
2023-03-07T21:51:34.266Z,7.10
2023-03-07T21:56:37.811Z,5.87
2023-03-07T22:01:41.129Z,5.63
2023-03-07T22:06:45.851Z,5.83
2023-03-07T22:11:50.244Z,5.07
2023-03-07T22:16:53.833Z,5.60
2023-03-07T22:21:59.040Z,5.37
2023-03-07T22:27:02.428Z,5.57
2023-03-07T22:32:07.291Z,5.60
2023-03-07T22:37:12.668Z,3.63
2023-03-07T22:42:16.032Z,5.13
2023-03-07T22:47:19.453Z,8.80
2023-03-07T22:52:24.241Z,5.77
2023-03-07T22:57:27.787Z,6.47
2023-03-07T23:02:31.023Z,4.47
2023-03-07T23:07:35.819Z,4.60
2023-03-07T23:12:39.502Z,5.00
2023-03-07T23:17:42.760Z,5.23
2023-03-07T23:22:47.940Z,4.80
2023-03-07T23:27:51.367Z,4.30
2023-03-07T23:32:55.840Z,5.37
2023-03-07T23:38:00.831Z,4.77
2023-03-07T23:43:04.546Z,4.83
2023-03-07T23:48:10.999Z,4.73
2023-03-07T23:53:16.072Z,5.63
2023-03-07T23:58:19.340Z,5.03
